Rivercat — WDA9209 — position and weather

sailwx.info

Track history (hours):
 
Tides and Currents Weather Stations Pressure Air Temp Water Temp Dewpoint Dewpoint Depression Visibility Wind Speed Wind Dir Waves Ship Positions

Rivercat

Owner: TAURUS MARINE, SAN FRANCISCO, CA. More information available from US FCC via Universal Licensing System and Coast Guard Vessel Documentation Center.

Last reported at 2018-Feb-18 04:17 UTC. Time now 2018-Feb-20 11:26 UTC.
Position N 37°46' W 122°23'.

Length 20 m; draft 2 m.

Type: Tug. MMSI: 366862670.

Date/timePositionNaut miles runAvg speedWind from/ knotsBaromVisibWave heightAir tempDewpointWater temp
2018-Feb-18 04:17N 37°46' W 122°23'1 2.9
2018-Feb-18 04:00N 37°46' W 122°22'1 1.9
2018-Feb-18 03:30N 37°46' W 122°21'0 0.1
2018-Feb-18 03:00N 37°46' W 122°21'0 0.0
2018-Feb-18 02:30N 37°46' W 122°21'0 0.0
2018-Feb-18 02:01N 37°46' W 122°21'0 0.0
2018-Feb-18 01:30N 37°46' W 122°21'0 0.0
2018-Feb-18 01:00N 37°46' W 122°21'0 0.0
2018-Feb-18 00:30N 37°46' W 122°21'0 0.0
2018-Feb-18 00:00N 37°46' W 122°21'0 0.0
2018-Feb-17 23:30N 37°46' W 122°21'2 3.3
2018-Feb-17 23:00N 37°46' W 122°23'0 0.0
2018-Feb-17 01:59N 37°46' W 122°23'3 6.5
2018-Feb-17 01:30N 37°50' W 122°23'5 9.6
2018-Feb-17 01:00N 37°54' W 122°24'2 3.2
2018-Feb-17 00:30N 37°55' W 122°22'1 2.3
2018-Feb-17 00:00N 37°54' W 122°22'2 3.7
2018-Feb-16 23:30N 37°53' W 122°24'3 6.3
2018-Feb-16 23:00N 37°50' W 122°22'3 5.1
2018-Feb-16 22:30N 37°49' W 122°19'0 0.3
2018-Feb-16 22:00N 37°49' W 122°19'2 4.5
2018-Feb-16 21:30N 37°47' W 122°20'3 6.1
2018-Feb-16 21:00N 37°44' W 122°19'3 5.2
2018-Feb-16 20:30N 37°41' W 122°19'2 4.8
2018-Feb-16 20:00N 37°39' W 122°19'2 4.4
2018-Feb-16 19:30N 37°37' W 122°17'2 4.2
2018-Feb-16 19:00N 37°35' W 122°16'2 3.8
2018-Feb-16 18:30N 37°34' W 122°13'3 3.5
2018-Feb-16 17:48N 37°32' W 122°12'1 3.8
2018-Feb-16 17:30N 37°31' W 122°12'1 1.9
2018-Feb-16 17:00N 37°31' W 122°13'0 0.0
2018-Feb-16 16:30N 37°31' W 122°13'2 4.0
2018-Feb-16 16:00N 37°32' W 122°12'4 8.6
2018-Feb-16 15:30N 37°35' W 122°15'5 9.0
2018-Feb-16 15:00N 37°39' W 122°19'5 9.2
2018-Feb-16 14:30N 37°43' W 122°21'4 0.2
2018-Feb-15 20:25N 37°46' W 122°23'2 4.0
2018-Feb-15 20:00N 37°45' W 122°23'2 3.0
2018-Feb-15 19:30N 37°46' W 122°23'0 0.0
2018-Feb-14 20:28N 37°46' W 122°23'1 3.2
2018-Feb-14 20:00N 37°45' W 122°23'0 0.2
2018-Feb-14 19:30N 37°45' W 122°23'0 0.0
2018-Feb-14 19:00N 37°45' W 122°23'0 0.0
2018-Feb-14 18:30N 37°45' W 122°23'0 0.1
2018-Feb-14 18:00N 37°45' W 122°23'0 0.0
2018-Feb-14 17:30N 37°45' W 122°23'0 0.2
2018-Feb-14 17:00N 37°45' W 122°22'2 3.1
2018-Feb-14 16:30N 37°46' W 122°23'0 0.0
2018-Feb-13 23:54N 37°46' W 122°23'1 2.9
2018-Feb-13 23:30N 37°46' W 122°22'1 2.9
2018-Feb-13 23:00N 37°45' W 122°21'0 0.0
2018-Feb-13 22:30N 37°45' W 122°21'0 0.0
2018-Feb-13 22:00N 37°45' W 122°21'0 0.0
2018-Feb-13 21:30N 37°45' W 122°21'0 0.0
2018-Feb-13 21:00N 37°45' W 122°21'0 0.1
2018-Feb-13 20:30N 37°45' W 122°21'1 1.3
2018-Feb-13 20:00N 37°44' W 122°20'1 1.4
2018-Feb-13 19:30N 37°44' W 122°20'0 0.0
2018-Feb-13 19:00N 37°44' W 122°20'0 0.2
2018-Feb-13 18:30N 37°44' W 122°20'0 0.1
2018-Feb-13 18:00N 37°44' W 122°19'0 0.0
2018-Feb-13 17:30N 37°44' W 122°19'1 2.0
2018-Feb-13 17:00N 37°44' W 122°20'3 6.3
2018-Feb-13 16:30N 37°46' W 122°23'0 0.0
2018-Feb-12 04:34N 37°46' W 122°23'0 0.0
2018-Feb-12 04:30N 37°46' W 122°23'2 4.8
2018-Feb-12 04:00N 37°49' W 122°24'1 2.5
2018-Feb-12 03:30N 37°50' W 122°25'2 3.7
2018-Feb-12 03:00N 37°48' W 122°23'2 3.9
2018-Feb-12 02:30N 37°46' W 122°23'0 0.0
2018-Feb-12 02:00N 37°46' W 122°23'0 0.0
2018-Feb-10 01:50N 37°46' W 122°23'1 1.9
2018-Feb-10 01:30N 37°47' W 122°22'1 1.9
2018-Feb-10 01:00N 37°47' W 122°22'0 0.1
2018-Feb-10 00:30N 37°48' W 122°21'0 0.1
2018-Feb-10 00:01N 37°48' W 122°22'0 0.2
2018-Feb-09 23:30N 37°48' W 122°21'0 0.3
2018-Feb-09 23:00N 37°48' W 122°21'0 0.2
2018-Feb-09 22:46N 37°48' W 122°22'0 0.1
2018-Feb-09 22:01N 37°48' W 122°22'2 1.7
2018-Feb-09 21:01N 37°46' W 122°23'4 0.7
2018-Feb-09 15:30N 37°48' W 122°18'4 0.3
2018-Feb-08 23:00N 37°48' W 122°23'3 5.1
2018-Feb-08 22:30N 37°47' W 122°21'2 3.9
2018-Feb-08 22:00N 37°47' W 122°18'0 0.0
2018-Feb-08 21:30N 37°47' W 122°18'0 0.0
2018-Feb-08 21:00N 37°47' W 122°18'0 0.0
2018-Feb-08 19:00N 37°47' W 122°18'0 0.0
2018-Feb-08 18:30N 37°47' W 122°18'0 0.0
2018-Feb-08 16:30N 37°47' W 122°18'0 0.0
2018-Feb-08 15:00N 37°47' W 122°18'1 1.1
2018-Feb-08 14:00N 37°47' W 122°19'3 3.1
2018-Feb-08 13:00N 37°48' W 122°23'  
Track history (hours):
 
Tides and Currents Weather Stations Pressure Air Temp Water Temp Dewpoint Dewpoint Depression Visibility Wind Speed Wind Dir Waves Ship Positions

Rivercat

Owner: TAURUS MARINE, SAN FRANCISCO, CA. More information available from US FCC via Universal Licensing System and Coast Guard Vessel Documentation Center.

Last reported at 2018-Feb-18 04:17 UTC. Time now 2018-Feb-20 11:26 UTC.
Position N 37°46' W 122°23'.

Length 20 m; draft 2 m.

Type: Tug. MMSI: 366862670.

Date/timePositionNaut miles runAvg speedWind from/ knotsBaromVisibWave heightAir tempDewpointWater temp
2018-Feb-18 04:17N 37°46' W 122°23'1 2.9
2018-Feb-18 04:00N 37°46' W 122°22'1 1.9
2018-Feb-18 03:30N 37°46' W 122°21'0 0.1
2018-Feb-18 03:00N 37°46' W 122°21'0 0.0
2018-Feb-18 02:30N 37°46' W 122°21'0 0.0
2018-Feb-18 02:01N 37°46' W 122°21'0 0.0
2018-Feb-18 01:30N 37°46' W 122°21'0 0.0
2018-Feb-18 01:00N 37°46' W 122°21'0 0.0
2018-Feb-18 00:30N 37°46' W 122°21'0 0.0
2018-Feb-18 00:00N 37°46' W 122°21'0 0.0
2018-Feb-17 23:30N 37°46' W 122°21'2 3.3
2018-Feb-17 23:00N 37°46' W 122°23'0 0.0
2018-Feb-17 01:59N 37°46' W 122°23'3 6.5
2018-Feb-17 01:30N 37°50' W 122°23'5 9.6
2018-Feb-17 01:00N 37°54' W 122°24'2 3.2
2018-Feb-17 00:30N 37°55' W 122°22'1 2.3
2018-Feb-17 00:00N 37°54' W 122°22'2 3.7
2018-Feb-16 23:30N 37°53' W 122°24'3 6.3
2018-Feb-16 23:00N 37°50' W 122°22'3 5.1
2018-Feb-16 22:30N 37°49' W 122°19'0 0.3
2018-Feb-16 22:00N 37°49' W 122°19'2 4.5
2018-Feb-16 21:30N 37°47' W 122°20'3 6.1
2018-Feb-16 21:00N 37°44' W 122°19'3 5.2
2018-Feb-16 20:30N 37°41' W 122°19'2 4.8
2018-Feb-16 20:00N 37°39' W 122°19'2 4.4
2018-Feb-16 19:30N 37°37' W 122°17'2 4.2
2018-Feb-16 19:00N 37°35' W 122°16'2 3.8
2018-Feb-16 18:30N 37°34' W 122°13'3 3.5
2018-Feb-16 17:48N 37°32' W 122°12'1 3.8
2018-Feb-16 17:30N 37°31' W 122°12'1 1.9
2018-Feb-16 17:00N 37°31' W 122°13'0 0.0
2018-Feb-16 16:30N 37°31' W 122°13'2 4.0
2018-Feb-16 16:00N 37°32' W 122°12'4 8.6
2018-Feb-16 15:30N 37°35' W 122°15'5 9.0
2018-Feb-16 15:00N 37°39' W 122°19'5 9.2
2018-Feb-16 14:30N 37°43' W 122°21'4 0.2
2018-Feb-15 20:25N 37°46' W 122°23'2 4.0
2018-Feb-15 20:00N 37°45' W 122°23'2 3.0
2018-Feb-15 19:30N 37°46' W 122°23'0 0.0
2018-Feb-14 20:28N 37°46' W 122°23'1 3.2
2018-Feb-14 20:00N 37°45' W 122°23'0 0.2
2018-Feb-14 19:30N 37°45' W 122°23'0 0.0
2018-Feb-14 19:00N 37°45' W 122°23'0 0.0
2018-Feb-14 18:30N 37°45' W 122°23'0 0.1
2018-Feb-14 18:00N 37°45' W 122°23'0 0.0
2018-Feb-14 17:30N 37°45' W 122°23'0 0.2
2018-Feb-14 17:00N 37°45' W 122°22'2 3.1
2018-Feb-14 16:30N 37°46' W 122°23'0 0.0
2018-Feb-13 23:54N 37°46' W 122°23'1 2.9
2018-Feb-13 23:30N 37°46' W 122°22'1 2.9
2018-Feb-13 23:00N 37°45' W 122°21'0 0.0
2018-Feb-13 22:30N 37°45' W 122°21'0 0.0
2018-Feb-13 22:00N 37°45' W 122°21'0 0.0
2018-Feb-13 21:30N 37°45' W 122°21'0 0.0
2018-Feb-13 21:00N 37°45' W 122°21'0 0.1
2018-Feb-13 20:30N 37°45' W 122°21'1 1.3
2018-Feb-13 20:00N 37°44' W 122°20'1 1.4
2018-Feb-13 19:30N 37°44' W 122°20'0 0.0
2018-Feb-13 19:00N 37°44' W 122°20'0 0.2
2018-Feb-13 18:30N 37°44' W 122°20'0 0.1
2018-Feb-13 18:00N 37°44' W 122°19'0 0.0
2018-Feb-13 17:30N 37°44' W 122°19'1 2.0
2018-Feb-13 17:00N 37°44' W 122°20'3 6.3
2018-Feb-13 16:30N 37°46' W 122°23'0 0.0
2018-Feb-12 04:34N 37°46' W 122°23'0 0.0
2018-Feb-12 04:30N 37°46' W 122°23'2 4.8
2018-Feb-12 04:00N 37°49' W 122°24'1 2.5
2018-Feb-12 03:30N 37°50' W 122°25'2 3.7
2018-Feb-12 03:00N 37°48' W 122°23'2 3.9
2018-Feb-12 02:30N 37°46' W 122°23'0 0.0
2018-Feb-12 02:00N 37°46' W 122°23'0 0.0
2018-Feb-10 01:50N 37°46' W 122°23'1 1.9
2018-Feb-10 01:30N 37°47' W 122°22'1 1.9
2018-Feb-10 01:00N 37°47' W 122°22'0 0.1
2018-Feb-10 00:30N 37°48' W 122°21'0 0.1
2018-Feb-10 00:01N 37°48' W 122°22'0 0.2
2018-Feb-09 23:30N 37°48' W 122°21'0 0.3
2018-Feb-09 23:00N 37°48' W 122°21'0 0.2
2018-Feb-09 22:46N 37°48' W 122°22'0 0.1
2018-Feb-09 22:01N 37°48' W 122°22'2 1.7
2018-Feb-09 21:01N 37°46' W 122°23'4 0.7
2018-Feb-09 15:30N 37°48' W 122°18'4 0.3
2018-Feb-08 23:00N 37°48' W 122°23'3 5.1
2018-Feb-08 22:30N 37°47' W 122°21'2 3.9
2018-Feb-08 22:00N 37°47' W 122°18'0 0.0
2018-Feb-08 21:30N 37°47' W 122°18'0 0.0
2018-Feb-08 21:00N 37°47' W 122°18'0 0.0
2018-Feb-08 19:00N 37°47' W 122°18'0 0.0
2018-Feb-08 18:30N 37°47' W 122°18'0 0.0
2018-Feb-08 16:30N 37°47' W 122°18'0 0.0
2018-Feb-08 15:00N 37°47' W 122°18'1 1.1
2018-Feb-08 14:00N 37°47' W 122°19'3 3.1
2018-Feb-08 13:00N 37°48' W 122°23'  

Dump ship's entire track history